createdAt,value
2017-10-10T00:01:03.532Z,14.03
2017-10-10T00:03:30.971Z,14.50
2017-10-10T00:05:58.404Z,14.60
2017-10-10T00:08:25.831Z,13.43
2017-10-10T00:10:53.272Z,16.10
2017-10-10T00:13:20.705Z,13.60
2017-10-10T00:15:48.151Z,15.50
2017-10-10T00:18:15.584Z,15.60
2017-10-10T00:20:43.025Z,15.40
2017-10-10T00:23:11.221Z,11.73
2017-10-10T00:25:38.664Z,14.57
2017-10-10T00:28:06.857Z,17.23
2017-10-10T00:30:34.279Z,16.67
2017-10-10T00:33:02.480Z,19.60
2017-10-10T00:35:29.917Z,17.80
2017-10-10T00:37:58.134Z,14.60
2017-10-10T00:40:25.574Z,16.80
2017-10-10T00:42:53.003Z,15.90
2017-10-10T00:45:21.209Z,13.63
2017-10-10T00:47:48.632Z,14.37
2017-10-10T00:50:16.851Z,20.40
2017-10-10T00:52:44.293Z,14.43
2017-10-10T00:55:11.715Z,15.47
2017-10-10T00:57:39.923Z,16.63
2017-10-10T01:00:07.357Z,14.33
2017-10-10T01:02:35.572Z,12.80
2017-10-10T01:05:04.004Z,15.87
2017-10-10T01:07:31.445Z,13.57
2017-10-10T01:09:58.881Z,16.80
2017-10-10T01:12:26.333Z,15.60
2017-10-10T01:14:53.751Z,17.57
2017-10-10T01:17:21.188Z,18.60
2017-10-10T01:19:49.410Z,13.37
2017-10-10T01:22:16.845Z,14.37
2017-10-10T01:24:44.276Z,13.10
2017-10-10T01:27:11.711Z,10.77
2017-10-10T01:29:39.148Z,16.83
2017-10-10T01:32:06.641Z,12.30
2017-10-10T01:34:34.064Z,13.87
2017-10-10T01:37:01.495Z,12.20
2017-10-10T01:39:28.928Z,12.57
2017-10-10T01:41:57.138Z,12.03
2017-10-10T01:44:24.552Z,14.77
2017-10-10T01:46:52.752Z,14.80
2017-10-10T01:49:20.181Z,14.17
2017-10-10T01:51:48.400Z,13.80
2017-10-10T01:54:15.827Z,14.63
2017-10-10T01:56:44.030Z,13.60
2017-10-10T01:59:11.464Z,13.93
2017-10-10T02:01:38.896Z,13.43
2017-10-10T02:04:06.352Z,12.97
2017-10-10T02:06:33.785Z,12.27
2017-10-10T02:09:01.229Z,15.77
2017-10-10T02:11:28.671Z,14.90
2017-10-10T02:13:56.112Z,14.33
2017-10-10T02:16:23.540Z,13.43
2017-10-10T02:18:51.749Z,13.43
2017-10-10T02:21:19.167Z,17.40
2017-10-10T02:23:47.376Z,13.03
2017-10-10T02:26:14.800Z,12.93
2017-10-10T02:28:43.008Z,15.73
2017-10-10T02:31:10.433Z,13.97
2017-10-10T02:33:38.635Z,14.80
2017-10-10T02:36:06.069Z,15.60
2017-10-10T02:38:34.273Z,20.47
2017-10-10T02:41:01.700Z,17.17
2017-10-10T02:43:29.910Z,17.60
2017-10-10T02:45:57.332Z,16.43
2017-10-10T02:48:25.551Z,15.53
2017-10-10T02:50:52.976Z,23.20
2017-10-10T02:53:21.177Z,17.03
2017-10-10T02:55:48.615Z,19.67
2017-10-10T02:58:16.047Z,20.47
2017-10-10T03:00:44.266Z,19.27
2017-10-10T03:03:11.695Z,15.97
2017-10-10T03:05:39.127Z,17.27
2017-10-10T03:08:06.577Z,22.63
2017-10-10T03:10:34.049Z,15.53
2017-10-10T03:13:02.249Z,24.23
2017-10-10T03:15:29.691Z,19.37
2017-10-10T03:17:57.883Z,15.70
2017-10-10T03:20:25.315Z,17.73
2017-10-10T03:22:53.525Z,26.70
2017-10-10T03:25:20.962Z,26.93
2017-10-10T03:27:48.392Z,27.00
2017-10-10T03:30:16.657Z,21.80
2017-10-10T03:32:44.092Z,19.47
2017-10-10T03:35:11.540Z,19.07
2017-10-10T03:37:38.960Z,20.20
2017-10-10T03:40:07.169Z,22.53
2017-10-10T03:42:34.610Z,21.60
2017-10-10T03:45:02.044Z,22.83
2017-10-10T03:47:30.252Z,18.90
2017-10-10T03:49:57.705Z,21.70
2017-10-10T03:52:25.152Z,22.60
2017-10-10T03:54:52.592Z,18.43
2017-10-10T03:57:20.810Z,25.33
2017-10-10T03:59:48.232Z,20.93
2017-10-10T04:02:16.429Z,22.23
2017-10-10T04:04:43.866Z,25.70
2017-10-10T04:07:11.329Z,21.80
2017-10-10T04:09:38.757Z,19.43
2017-10-10T04:12:06.962Z,17.03
2017-10-10T04:14:34.387Z,22.10
2017-10-10T04:17:02.588Z,29.27
2017-10-10T04:19:30.025Z,19.27
2017-10-10T04:21:58.236Z,21.90
2017-10-10T04:24:25.672Z,20.80
2017-10-10T04:26:53.117Z,16.67
2017-10-10T04:29:21.309Z,22.03
2017-10-10T04:31:48.756Z,19.70
2017-10-10T04:34:16.184Z,26.03
2017-10-10T04:36:43.625Z,18.00
2017-10-10T04:39:11.056Z,23.13
2017-10-10T04:41:38.502Z,20.20
2017-10-10T04:44:05.934Z,17.90
2017-10-10T04:46:34.127Z,22.80
2017-10-10T04:49:01.577Z,19.60
2017-10-10T04:51:29.012Z,23.87
2017-10-10T04:53:57.209Z,23.90
2017-10-10T04:56:24.674Z,19.80
2017-10-10T04:58:52.110Z,21.70
2017-10-10T05:01:20.304Z,23.73
2017-10-10T05:03:47.749Z,20.13
2017-10-10T05:06:15.176Z,18.97
2017-10-10T05:08:42.620Z,24.70
2017-10-10T05:11:10.057Z,21.63
2017-10-10T05:13:37.503Z,18.57
2017-10-10T05:16:04.934Z,19.53
2017-10-10T05:18:32.368Z,22.03
2017-10-10T05:21:00.581Z,27.43
2017-10-10T05:23:28.028Z,21.17
2017-10-10T05:25:56.207Z,21.30
2017-10-10T05:28:23.643Z,19.10
2017-10-10T05:30:51.854Z,22.80
2017-10-10T05:33:19.325Z,17.67
2017-10-10T05:35:46.724Z,20.23
2017-10-10T05:38:14.937Z,20.03
2017-10-10T05:40:42.369Z,21.70
2017-10-10T05:43:10.572Z,24.70
2017-10-10T05:45:38.012Z,23.80
2017-10-10T05:48:05.445Z,23.53
2017-10-10T05:50:33.640Z,21.30
2017-10-10T05:53:01.077Z,19.70
2017-10-10T05:55:29.272Z,23.17
2017-10-10T05:57:56.732Z,19.57
2017-10-10T06:00:24.165Z,22.40
2017-10-10T06:02:52.357Z,22.40
2017-10-10T06:05:19.793Z,18.10
2017-10-10T06:07:47.989Z,23.47
2017-10-10T06:10:15.425Z,22.70
2017-10-10T06:12:43.621Z,24.20
2017-10-10T06:15:11.064Z,25.27
2017-10-10T06:17:39.264Z,23.67
2017-10-10T06:20:06.700Z,26.10
2017-10-10T06:22:34.137Z,21.70
2017-10-10T06:25:02.348Z,29.07
2017-10-10T06:27:29.772Z,24.10
2017-10-10T06:29:57.989Z,22.90
2017-10-10T06:32:25.421Z,24.17
2017-10-10T06:34:52.855Z,22.00
2017-10-10T06:37:20.284Z,24.00
2017-10-10T06:39:47.729Z,23.40
2017-10-10T06:42:15.168Z,31.00
2017-10-10T06:44:43.666Z,25.90
2017-10-10T06:47:11.101Z,29.33
2017-10-10T06:49:38.541Z,35.30
2017-10-10T06:52:05.990Z,27.73
2017-10-10T06:54:34.204Z,26.97
2017-10-10T06:57:01.666Z,26.43
2017-10-10T06:59:29.113Z,27.83
2017-10-10T07:01:56.541Z,30.63
2017-10-10T07:04:24.753Z,37.40
2017-10-10T07:06:52.214Z,28.40
2017-10-10T07:09:19.640Z,29.80
2017-10-10T07:11:47.073Z,35.00
2017-10-10T07:14:15.268Z,29.40
2017-10-10T07:16:42.705Z,29.87
2017-10-10T07:19:10.905Z,29.67
2017-10-10T07:21:38.345Z,32.53
2017-10-10T07:24:06.554Z,30.30
2017-10-10T07:26:33.993Z,28.53
2017-10-10T07:29:01.426Z,25.87
2017-10-10T07:31:29.640Z,25.67
2017-10-10T07:33:57.082Z,38.83
2017-10-10T07:36:24.514Z,30.03
2017-10-10T07:38:52.716Z,29.43
2017-10-10T07:41:20.156Z,33.67
2017-10-10T07:43:48.360Z,30.43
2017-10-10T07:46:15.801Z,27.27
2017-10-10T07:48:43.238Z,31.03
2017-10-10T07:51:11.436Z,31.77
2017-10-10T07:53:38.877Z,27.10
2017-10-10T07:56:07.083Z,29.27
2017-10-10T07:58:34.531Z,29.77
2017-10-10T08:01:01.972Z,25.97
2017-10-10T08:03:29.403Z,29.50
2017-10-10T08:05:57.604Z,27.93
2017-10-10T08:08:25.041Z,27.00
2017-10-10T08:10:53.231Z,25.07
2017-10-10T08:13:20.676Z,28.13
2017-10-10T08:15:48.872Z,25.40
2017-10-10T08:18:16.299Z,30.80
2017-10-10T08:20:44.500Z,31.83
2017-10-10T08:23:11.937Z,29.10
2017-10-10T08:25:40.128Z,28.57
2017-10-10T08:28:07.566Z,30.93
2017-10-10T08:30:35.773Z,29.70
2017-10-10T08:33:03.213Z,29.20
2017-10-10T08:35:30.640Z,29.37
2017-10-10T08:37:58.085Z,24.47
2017-10-10T08:40:25.512Z,26.97
2017-10-10T08:42:52.957Z,27.77
2017-10-10T08:45:20.387Z,27.10
2017-10-10T08:47:48.593Z,26.03
2017-10-10T08:50:16.037Z,25.53
2017-10-10T08:52:43.472Z,31.40
2017-10-10T08:55:11.683Z,22.47
2017-10-10T08:57:39.132Z,26.13
2017-10-10T09:00:06.576Z,24.90
2017-10-10T09:02:34.016Z,21.60
2017-10-10T09:05:01.455Z,24.20
2017-10-10T09:07:28.905Z,22.60
2017-10-10T09:09:56.332Z,18.97
2017-10-10T09:12:23.764Z,28.00
2017-10-10T09:14:51.211Z,24.80
2017-10-10T09:17:19.411Z,26.23
2017-10-10T09:19:46.854Z,22.10
2017-10-10T09:22:14.276Z,28.67
2017-10-10T09:24:41.713Z,27.20
2017-10-10T09:27:09.143Z,22.60
2017-10-10T09:29:36.597Z,22.77
2017-10-10T09:32:04.024Z,18.07
2017-10-10T09:34:31.464Z,22.60
2017-10-10T09:36:59.669Z,29.37
2017-10-10T09:39:27.101Z,23.13
2017-10-10T09:41:55.297Z,20.13
2017-10-10T09:44:22.740Z,23.40
2017-10-10T09:46:50.946Z,25.93
2017-10-10T09:49:18.390Z,29.90
2017-10-10T09:51:45.826Z,21.03
2017-10-10T09:54:14.057Z,20.47
2017-10-10T09:56:41.492Z,24.63
2017-10-10T09:59:08.956Z,22.00
2017-10-10T10:01:36.386Z,23.97
2017-10-10T10:04:03.821Z,22.90
2017-10-10T10:06:32.017Z,20.70
2017-10-10T10:08:59.461Z,22.70
2017-10-10T10:11:27.665Z,22.17
2017-10-10T10:13:55.095Z,21.93
2017-10-10T10:16:23.308Z,18.80
2017-10-10T10:18:50.753Z,28.83
2017-10-10T10:21:18.188Z,23.70
2017-10-10T10:23:45.616Z,23.03
2017-10-10T10:26:13.052Z,22.60
2017-10-10T10:28:40.492Z,23.30
2017-10-10T10:31:07.932Z,26.87
2017-10-10T10:33:35.373Z,23.23
2017-10-10T10:36:02.799Z,21.07
2017-10-10T10:38:30.228Z,19.37
2017-10-10T10:40:57.668Z,21.37
2017-10-10T10:43:25.141Z,20.60
2017-10-10T10:45:52.592Z,18.13
2017-10-10T10:48:20.022Z,17.63
2017-10-10T10:50:47.461Z,17.83
2017-10-10T10:53:15.684Z,17.00
2017-10-10T10:55:43.128Z,15.93
2017-10-10T10:58:10.575Z,19.13
2017-10-10T11:00:38.008Z,13.33
2017-10-10T11:03:06.212Z,20.37
2017-10-10T11:05:33.651Z,13.37
2017-10-10T11:08:01.082Z,19.73
2017-10-10T11:10:29.280Z,20.23
2017-10-10T11:12:56.720Z,19.40
2017-10-10T11:15:24.913Z,21.30
2017-10-10T11:17:52.349Z,19.07
2017-10-10T11:20:20.548Z,19.37
2017-10-10T11:22:47.993Z,21.57
2017-10-10T11:25:15.434Z,20.13
2017-10-10T11:27:42.860Z,20.23
2017-10-10T11:30:10.308Z,17.43
2017-10-10T11:32:37.745Z,18.93
2017-10-10T11:35:05.173Z,18.27
2017-10-10T11:37:33.388Z,18.80
2017-10-10T11:40:00.821Z,17.97
2017-10-10T11:42:28.265Z,17.70
2017-10-10T11:44:56.459Z,23.03
2017-10-10T11:47:23.905Z,19.00
2017-10-10T11:49:51.334Z,16.00
2017-10-10T11:52:19.543Z,21.70
2017-10-10T11:54:46.973Z,14.00
2017-10-10T11:57:15.194Z,13.33
2017-10-10T11:59:42.619Z,9.60
2017-10-10T12:02:10.052Z,12.70
2017-10-10T12:04:37.481Z,11.37
2017-10-10T12:07:04.924Z,11.57
2017-10-10T12:09:32.348Z,9.67
2017-10-10T12:11:59.769Z,9.93
2017-10-10T12:14:27.213Z,11.60
2017-10-10T12:16:54.644Z,11.23
2017-10-10T12:19:22.129Z,8.93
2017-10-10T12:21:49.573Z,10.67
2017-10-10T12:24:17.980Z,10.53
2017-10-10T12:26:45.415Z,9.77
2017-10-10T12:29:12.859Z,10.20
2017-10-10T12:31:40.279Z,8.47
2017-10-10T12:34:07.725Z,8.90
2017-10-10T12:36:35.918Z,6.90
2017-10-10T12:39:03.344Z,8.17
2017-10-10T12:41:31.539Z,8.03
2017-10-10T12:43:58.970Z,9.93
2017-10-10T12:46:26.404Z,9.03
2017-10-10T12:48:53.839Z,8.10
2017-10-10T12:51:21.264Z,6.67
2017-10-10T12:53:48.709Z,7.83
2017-10-10T12:56:16.904Z,9.60
2017-10-10T12:58:44.339Z,8.10
2017-10-10T13:01:12.593Z,5.67
2017-10-10T13:03:40.002Z,5.17
2017-10-10T13:06:07.432Z,4.63
2017-10-10T13:08:35.619Z,5.10
2017-10-10T13:11:03.039Z,7.60
2017-10-10T13:13:30.458Z,4.83
2017-10-10T13:15:57.896Z,8.10
2017-10-10T13:18:25.326Z,8.03
2017-10-10T13:20:53.521Z,8.13
2017-10-10T13:23:20.949Z,8.70
2017-10-10T13:25:49.153Z,8.43
2017-10-10T13:28:16.585Z,8.20
2017-10-10T13:30:44.779Z,10.33
2017-10-10T13:33:12.228Z,16.10
2017-10-10T13:35:40.421Z,11.60
2017-10-10T13:38:07.849Z,13.10
2017-10-10T13:40:36.059Z,13.83
2017-10-10T13:43:03.494Z,8.17
2017-10-10T13:45:31.695Z,13.17
2017-10-10T13:47:59.123Z,12.47
2017-10-10T13:50:27.326Z,12.60
2017-10-10T13:52:54.765Z,11.40
2017-10-10T13:55:22.205Z,11.50
2017-10-10T13:57:50.409Z,10.83
2017-10-10T14:00:17.828Z,11.27
2017-10-10T14:02:46.034Z,9.07
2017-10-10T14:05:13.457Z,10.30
2017-10-10T14:07:41.662Z,11.87
2017-10-10T14:10:09.092Z,12.40
2017-10-10T14:12:37.288Z,11.00
2017-10-10T14:15:04.726Z,11.07
2017-10-10T14:17:32.939Z,11.13
2017-10-10T14:20:00.372Z,13.33
2017-10-10T14:22:28.566Z,9.90
2017-10-10T14:24:56.005Z,10.83
2017-10-10T14:27:23.451Z,13.33
2017-10-10T14:29:51.631Z,11.30
2017-10-10T14:32:19.074Z,10.90
2017-10-10T14:34:47.269Z,10.63
2017-10-10T14:37:14.701Z,12.73
2017-10-10T14:39:42.904Z,11.63
2017-10-10T14:42:10.333Z,12.03
2017-10-10T14:44:38.543Z,12.57
2017-10-10T14:47:05.977Z,17.73
2017-10-10T14:49:34.164Z,15.20
2017-10-10T14:52:01.605Z,14.00
2017-10-10T14:54:29.800Z,12.47
2017-10-10T14:56:57.239Z,11.70
2017-10-10T14:59:25.445Z,11.63
2017-10-10T15:01:52.879Z,13.83
2017-10-10T15:04:20.311Z,10.70
2017-10-10T15:06:47.740Z,13.27
2017-10-10T15:09:15.186Z,17.63
2017-10-10T15:11:42.622Z,14.00
2017-10-10T15:14:10.054Z,16.23
2017-10-10T15:16:38.247Z,10.00
2017-10-10T15:19:05.681Z,12.33
2017-10-10T15:21:33.879Z,10.40
2017-10-10T15:24:01.309Z,11.10
2017-10-10T15:26:29.515Z,14.30
2017-10-10T15:28:56.947Z,13.30
2017-10-10T15:31:25.148Z,13.67
2017-10-10T15:33:52.587Z,10.57
2017-10-10T15:36:20.021Z,11.30
2017-10-10T15:38:48.228Z,11.07
2017-10-10T15:41:15.652Z,14.20
2017-10-10T15:43:43.851Z,11.47
2017-10-10T15:46:11.285Z,11.67
2017-10-10T15:48:38.713Z,9.23
2017-10-10T15:51:06.155Z,11.53
2017-10-10T15:53:35.647Z,14.23
2017-10-10T15:56:03.060Z,12.93
2017-10-10T15:58:30.491Z,10.13
2017-10-10T16:00:57.920Z,11.57
2017-10-10T16:03:25.356Z,10.10
2017-10-10T16:05:52.784Z,10.20
2017-10-10T16:08:20.979Z,10.97
2017-10-10T16:10:48.407Z,12.17
2017-10-10T16:13:15.843Z,11.77
2017-10-10T16:15:43.272Z,11.40
2017-10-10T16:18:10.731Z,12.40
2017-10-10T16:20:38.161Z,12.10
2017-10-10T16:23:05.606Z,12.60
2017-10-10T16:25:33.027Z,13.17
2017-10-10T16:28:00.459Z,12.07
2017-10-10T16:30:27.890Z,14.10
2017-10-10T16:32:55.322Z,11.80
2017-10-10T16:35:22.748Z,13.57
2017-10-10T16:37:50.200Z,15.17
2017-10-10T16:40:17.638Z,13.60
2017-10-10T16:42:45.077Z,29.37
2017-10-10T16:45:12.535Z,15.63
2017-10-10T16:47:40.711Z,22.53
2017-10-10T16:50:08.152Z,25.90
2017-10-10T16:52:36.353Z,16.03
2017-10-10T16:55:03.801Z,15.37
2017-10-10T16:57:31.220Z,22.63
2017-10-10T16:59:58.661Z,43.90
2017-10-10T17:02:26.100Z,19.63
2017-10-10T17:04:53.553Z,12.47
2017-10-10T17:07:20.989Z,12.20
2017-10-10T17:09:48.416Z,10.53
2017-10-10T17:12:16.616Z,10.13
2017-10-10T17:14:44.043Z,13.97
2017-10-10T17:17:12.246Z,10.37
2017-10-10T17:19:39.672Z,15.10
2017-10-10T17:22:07.872Z,10.60
2017-10-10T17:24:35.329Z,12.47
2017-10-10T17:27:02.761Z,14.40
2017-10-10T17:29:30.191Z,13.93
2017-10-10T17:31:57.634Z,12.37
2017-10-10T17:34:25.075Z,13.40
2017-10-10T17:36:52.504Z,12.37
2017-10-10T17:39:20.710Z,17.53
2017-10-10T17:41:48.141Z,11.60
2017-10-10T17:44:15.573Z,11.10
2017-10-10T17:46:43.004Z,11.90
2017-10-10T17:49:10.435Z,9.90
2017-10-10T17:51:37.878Z,15.97
2017-10-10T17:54:05.305Z,10.20
2017-10-10T17:56:33.503Z,9.70
2017-10-10T17:59:00.932Z,10.30
2017-10-10T18:01:28.376Z,14.20
2017-10-10T18:03:55.804Z,13.67
2017-10-10T18:06:23.308Z,11.77
2017-10-10T18:08:50.737Z,22.87
2017-10-10T18:11:18.169Z,8.60
2017-10-10T18:13:45.600Z,12.70
2017-10-10T18:16:13.035Z,14.27
2017-10-10T18:18:41.239Z,10.00
2017-10-10T18:21:08.669Z,10.97
2017-10-10T18:23:36.864Z,10.33
2017-10-10T18:26:04.296Z,10.70
2017-10-10T18:28:32.495Z,11.47
2017-10-10T18:30:59.916Z,9.67
2017-10-10T18:33:27.352Z,11.50
2017-10-10T18:35:54.784Z,11.53
2017-10-10T18:38:22.221Z,12.93
2017-10-10T18:40:49.648Z,12.17
2017-10-10T18:43:17.080Z,12.30
2017-10-10T18:45:44.518Z,11.17
2017-10-10T18:48:11.948Z,12.00
2017-10-10T18:50:39.376Z,10.17
2017-10-10T18:53:07.583Z,12.27
2017-10-10T18:55:35.040Z,12.43
2017-10-10T18:58:02.481Z,16.23
2017-10-10T19:00:29.905Z,12.73
2017-10-10T19:02:57.371Z,14.67
2017-10-10T19:05:24.784Z,10.70
2017-10-10T19:07:52.220Z,11.93
2017-10-10T19:10:19.648Z,10.23
2017-10-10T19:12:47.851Z,12.37
2017-10-10T19:15:15.279Z,11.83
2017-10-10T19:17:43.483Z,13.90
2017-10-10T19:20:10.916Z,12.30
2017-10-10T19:22:39.116Z,12.40
2017-10-10T19:25:06.540Z,12.13
2017-10-10T19:27:34.771Z,12.37
2017-10-10T19:30:02.205Z,14.03
2017-10-10T19:32:29.640Z,16.63
2017-10-10T19:34:57.850Z,11.53
2017-10-10T19:37:25.269Z,15.93
2017-10-10T19:39:53.484Z,12.30
2017-10-10T19:42:20.923Z,14.57
2017-10-10T19:44:48.365Z,16.20
2017-10-10T19:47:16.568Z,14.60
2017-10-10T19:49:44.029Z,15.23
2017-10-10T19:52:11.489Z,18.00
2017-10-10T19:54:38.975Z,14.57
2017-10-10T19:57:06.408Z,16.90
2017-10-10T19:59:33.860Z,17.40
2017-10-10T20:02:01.301Z,16.70
2017-10-10T20:04:28.740Z,18.10
2017-10-10T20:06:56.959Z,15.00
2017-10-10T20:09:24.398Z,21.90
2017-10-10T20:11:51.824Z,21.47
2017-10-10T20:14:20.034Z,16.40
2017-10-10T20:16:47.465Z,17.13
2017-10-10T20:19:14.906Z,14.37
2017-10-10T20:21:43.140Z,20.20
2017-10-10T20:24:10.580Z,17.60
2017-10-10T20:26:38.021Z,17.90
2017-10-10T20:29:05.452Z,18.50
2017-10-10T20:31:33.664Z,15.73
2017-10-10T20:34:01.133Z,21.70
2017-10-10T20:36:28.581Z,18.30
2017-10-10T20:38:56.016Z,21.00
2017-10-10T20:41:23.452Z,17.70
2017-10-10T20:43:51.657Z,18.87
2017-10-10T20:46:19.092Z,26.60
2017-10-10T20:48:47.298Z,20.50
2017-10-10T20:51:14.732Z,18.10
2017-10-10T20:53:42.165Z,20.73
2017-10-10T20:56:09.600Z,20.77
2017-10-10T20:58:37.036Z,19.30
2017-10-10T21:01:04.492Z,19.80
2017-10-10T21:03:31.925Z,21.23
2017-10-10T21:05:59.364Z,16.40
2017-10-10T21:08:27.575Z,32.40
2017-10-10T21:10:55.020Z,18.67
2017-10-10T21:13:22.439Z,18.90
2017-10-10T21:15:50.656Z,22.10
2017-10-10T21:18:18.090Z,22.77
2017-10-10T21:20:45.528Z,19.10
2017-10-10T21:23:13.729Z,25.10
2017-10-10T21:25:41.164Z,22.57
2017-10-10T21:28:09.357Z,20.23
2017-10-10T21:30:36.800Z,18.00
2017-10-10T21:33:04.992Z,27.10
2017-10-10T21:35:32.443Z,18.50
2017-10-10T21:37:59.875Z,19.87
2017-10-10T21:40:28.075Z,26.57
2017-10-10T21:42:55.515Z,25.80
2017-10-10T21:45:23.713Z,20.30
2017-10-10T21:47:51.147Z,20.23
2017-10-10T21:50:19.353Z,20.17
2017-10-10T21:52:46.791Z,18.60
2017-10-10T21:55:14.221Z,22.00
2017-10-10T21:57:41.655Z,25.40
2017-10-10T22:00:09.092Z,22.93
2017-10-10T22:02:36.539Z,20.83
2017-10-10T22:05:03.957Z,21.03
2017-10-10T22:07:32.170Z,18.50
2017-10-10T22:09:59.599Z,19.60
2017-10-10T22:12:27.822Z,19.63
2017-10-10T22:14:55.240Z,19.90
2017-10-10T22:17:22.679Z,22.40
2017-10-10T22:19:50.881Z,17.93
2017-10-10T22:22:18.325Z,19.80
2017-10-10T22:24:45.761Z,26.23
2017-10-10T22:27:13.979Z,16.20
2017-10-10T22:29:41.397Z,18.80
2017-10-10T22:32:09.615Z,23.17
2017-10-10T22:34:37.050Z,20.90
2017-10-10T22:37:04.481Z,20.63
2017-10-10T22:39:32.695Z,18.90
2017-10-10T22:42:00.116Z,20.87
2017-10-10T22:44:28.330Z,24.80
2017-10-10T22:46:55.771Z,20.03
2017-10-10T22:49:23.208Z,25.90
2017-10-10T22:51:51.422Z,19.50
2017-10-10T22:54:18.860Z,21.03
2017-10-10T22:56:46.300Z,23.57
2017-10-10T22:59:14.512Z,18.87
2017-10-10T23:01:41.948Z,22.53
2017-10-10T23:04:09.382Z,17.80
2017-10-10T23:06:37.585Z,19.90
2017-10-10T23:09:05.017Z,25.33
2017-10-10T23:11:33.221Z,20.80
2017-10-10T23:14:00.664Z,20.47
2017-10-10T23:16:28.092Z,21.00
2017-10-10T23:18:55.537Z,21.43
2017-10-10T23:21:22.967Z,21.33
2017-10-10T23:23:50.410Z,24.00
2017-10-10T23:26:17.852Z,17.53
2017-10-10T23:28:45.288Z,16.67
2017-10-10T23:31:13.498Z,20.33
2017-10-10T23:33:40.944Z,23.30
2017-10-10T23:36:08.368Z,20.17
2017-10-10T23:38:36.567Z,21.90
2017-10-10T23:41:04.009Z,22.20
2017-10-10T23:43:32.200Z,19.47
2017-10-10T23:45:59.633Z,19.87
2017-10-10T23:48:27.833Z,19.93
2017-10-10T23:50:55.272Z,20.07
2017-10-10T23:53:23.464Z,17.33
2017-10-10T23:55:50.910Z,17.03
2017-10-10T23:58:19.110Z,16.60
